Panama City, Florida
Current Conditions -  °F | °C
As of 3:58 AM on Saturday 29 Nov 2014 (Local Time) from KPAM Reporting Station
Clear Clear  
Wind Chill: 38°   Ceiling: Unl
Heat Index: 41°   Visibility: 10mi
Dew Point: 36°   Wind: 5mph
Humidity: 81%   Direction: 90°E
Pressure: 30.27"   Gusts: NA
Location:  30.16°N, 85.66°W
Report Text: KPAM 290958Z AUTO 09004KT 10SM CLR 05/02 A3027 RMK AO2 SLP254 T00520022 $
Loading
Personal Weather Stations






























Interactive Weather Map New forecast layout! Learn more

10-Day Weather Forecast

Advertisements
Track Severe Weather on mobile